createdAt,value
2023-04-04T00:01:42.930Z,101390.66
2023-04-04T00:04:09.372Z,101385.25
2023-04-04T00:06:36.520Z,101398.28
2023-04-04T00:09:02.911Z,101386.94
2023-04-04T00:11:29.294Z,101383.19
2023-04-04T00:13:55.884Z,101385.78
2023-04-04T00:16:22.441Z,101381.47
2023-04-04T00:18:48.899Z,101384.03
2023-04-04T00:21:15.390Z,101385.00
2023-04-04T00:23:41.718Z,101385.09
2023-04-04T00:26:08.064Z,101376.13
2023-04-04T00:28:34.471Z,101377.06
2023-04-04T00:31:01.545Z,101376.84
2023-04-04T00:33:27.971Z,101376.75
2023-04-04T00:35:54.761Z,101370.59
2023-04-04T00:38:21.188Z,101362.59
2023-04-04T00:40:50.959Z,101357.34
2023-04-04T00:43:18.608Z,101355.03
2023-04-04T00:45:45.114Z,101357.69
2023-04-04T00:48:12.039Z,101358.81
2023-04-04T00:50:38.815Z,101356.09
2023-04-04T00:53:05.465Z,101360.41
2023-04-04T00:55:32.453Z,101358.63
2023-04-04T00:57:59.726Z,101353.38
2023-04-04T01:00:26.512Z,101355.34
2023-04-04T01:02:53.307Z,101350.03
2023-04-04T01:05:19.801Z,101353.69
2023-04-04T01:07:46.836Z,101346.63
2023-04-04T01:10:13.312Z,101348.34
2023-04-04T01:12:41.622Z,101352.63
2023-04-04T01:15:08.639Z,101352.84
2023-04-04T01:17:35.841Z,101350.56
2023-04-04T01:20:15.772Z,101356.28
2023-04-04T01:22:44.298Z,101353.66
2023-04-04T01:25:11.465Z,101352.84
2023-04-04T01:27:38.866Z,101349.22
2023-04-04T01:30:07.430Z,101351.84
2023-04-04T01:32:52.772Z,101345.53
2023-04-04T01:35:33.087Z,101343.19
2023-04-04T01:38:37.396Z,101343.44
2023-04-04T01:41:08.157Z,101341.16
2023-04-04T01:43:34.922Z,101332.47
2023-04-04T01:46:02.016Z,101334.94
2023-04-04T01:48:28.846Z,101334.84
2023-04-04T01:50:55.290Z,101331.38
2023-04-04T01:53:21.990Z,101339.56
2023-04-04T01:55:48.479Z,101337.13
2023-04-04T01:58:15.560Z,101334.78
2023-04-04T02:00:42.185Z,101328.41
2023-04-04T02:03:09.278Z,101329.22
2023-04-04T02:05:35.827Z,101330.91
2023-04-04T02:08:03.041Z,101318.50
2023-04-04T02:10:30.170Z,101325.81
2023-04-04T02:12:56.515Z,101329.03
2023-04-04T02:15:23.806Z,101325.63
2023-04-04T02:17:50.470Z,101338.53
2023-04-04T02:20:19.296Z,101336.41
2023-04-04T02:22:53.700Z,101347.56
2023-04-04T02:25:24.316Z,101347.22
2023-04-04T02:27:51.110Z,101344.84
2023-04-04T02:30:17.753Z,101339.88
2023-04-04T02:32:44.208Z,101337.31
2023-04-04T02:35:10.738Z,101335.28
2023-04-04T02:37:37.143Z,101341.47
2023-04-04T02:40:03.949Z,101343.53
2023-04-04T02:42:30.412Z,101340.97
2023-04-04T02:44:56.839Z,101341.13
2023-04-04T02:47:23.204Z,101337.28
2023-04-04T02:49:49.586Z,101338.50
2023-04-04T02:52:16.279Z,101333.44
2023-04-04T02:54:42.953Z,101330.41
2023-04-04T02:57:09.339Z,101336.59
2023-04-04T02:59:35.734Z,101322.41
2023-04-04T03:02:02.195Z,101325.75
2023-04-04T03:04:29.290Z,101322.84
2023-04-04T03:06:55.686Z,101331.50
2023-04-04T03:09:22.308Z,101332.94
2023-04-04T03:11:49.866Z,101331.97
2023-04-04T03:14:16.667Z,101327.00
2023-04-04T03:16:43.696Z,101321.94
2023-04-04T03:19:10.287Z,101322.31
2023-04-04T03:21:36.754Z,101323.31
2023-04-04T03:24:03.299Z,101319.59
2023-04-04T03:26:29.857Z,101327.44
2023-04-04T03:28:56.631Z,101322.13
2023-04-04T03:31:23.118Z,101313.91
2023-04-04T03:33:49.552Z,101317.00
2023-04-04T03:36:16.672Z,101312.47
2023-04-04T03:38:43.211Z,101305.88
2023-04-04T03:41:09.707Z,101311.78
2023-04-04T03:43:36.223Z,101314.53
2023-04-04T03:46:04.219Z,101317.28
2023-04-04T03:48:31.567Z,101317.97
2023-04-04T03:50:58.348Z,101306.94
2023-04-04T03:53:25.583Z,101312.88
2023-04-04T03:55:53.535Z,101309.00
2023-04-04T03:58:20.441Z,101313.88
2023-04-04T04:00:46.910Z,101307.09
2023-04-04T04:03:15.480Z,101305.38
2023-04-04T04:05:43.259Z,101306.94
2023-04-04T04:08:09.692Z,101304.56
2023-04-04T04:10:36.266Z,101306.75
2023-04-04T04:13:02.901Z,101312.75
2023-04-04T04:15:29.332Z,101304.09
2023-04-04T04:17:55.936Z,101309.38
2023-04-04T04:20:22.862Z,101306.56
2023-04-04T04:22:50.184Z,101305.66
2023-04-04T04:25:17.861Z,101301.03
2023-04-04T04:27:45.180Z,101294.06
2023-04-04T04:30:12.897Z,101294.91
2023-04-04T04:32:39.431Z,101294.53
2023-04-04T04:35:06.786Z,101294.72
2023-04-04T04:37:33.451Z,101307.00
2023-04-04T04:40:01.762Z,101298.03
2023-04-04T04:42:29.330Z,101299.94
2023-04-04T04:44:55.980Z,101298.97
2023-04-04T04:47:22.629Z,101301.59
2023-04-04T04:49:49.679Z,101296.38
2023-04-04T04:52:16.130Z,101303.53
2023-04-04T04:54:43.792Z,101309.44
2023-04-04T04:57:10.665Z,101309.53
2023-04-04T04:59:37.231Z,101315.59
2023-04-04T05:02:03.766Z,101313.03
2023-04-04T05:04:30.329Z,101312.19
2023-04-04T05:06:56.851Z,101312.34
2023-04-04T05:09:23.601Z,101308.19
2023-04-04T05:11:49.995Z,101315.06
2023-04-04T05:14:16.334Z,101315.91
2023-04-04T05:16:42.828Z,101313.16
2023-04-04T05:19:09.252Z,101316.06
2023-04-04T05:21:36.383Z,101311.81
2023-04-04T05:24:03.142Z,101314.06
2023-04-04T05:26:29.613Z,101315.81
2023-04-04T05:28:56.132Z,101312.34
2023-04-04T05:31:22.635Z,101316.22
2023-04-04T05:33:49.050Z,101315.00
2023-04-04T05:36:16.031Z,101318.91
2023-04-04T05:38:42.523Z,101301.44
2023-04-04T05:41:08.935Z,101308.13
2023-04-04T05:43:35.940Z,101306.53
2023-04-04T05:46:02.515Z,101306.00
2023-04-04T05:48:28.987Z,101303.09
2023-04-04T05:50:55.538Z,101305.91
2023-04-04T05:53:22.384Z,101306.06
2023-04-04T05:55:53.280Z,101291.34
2023-04-04T05:58:19.673Z,101299.13
2023-04-04T06:00:46.042Z,101307.75
2023-04-04T06:03:12.718Z,101311.16
2023-04-04T06:05:39.267Z,101303.75
2023-04-04T06:08:06.438Z,101305.38
2023-04-04T06:10:32.813Z,101305.50
2023-04-04T06:12:59.247Z,101312.19
2023-04-04T06:15:25.672Z,101309.84
2023-04-04T06:17:55.008Z,101318.06
2023-04-04T06:20:22.641Z,101311.69
2023-04-04T06:22:49.462Z,101322.16
2023-04-04T06:25:15.962Z,101322.31
2023-04-04T06:27:42.534Z,101322.47
2023-04-04T06:30:11.714Z,101326.16
2023-04-04T06:32:38.671Z,101321.88
2023-04-04T06:35:05.981Z,101327.34
2023-04-04T06:37:32.328Z,101332.81
2023-04-04T06:39:58.717Z,101330.31
2023-04-04T06:42:25.052Z,101337.09
2023-04-04T06:44:51.440Z,101329.19
2023-04-04T06:47:17.988Z,101343.06
2023-04-04T06:49:44.362Z,101346.78
2023-04-04T06:52:11.074Z,101339.47
2023-04-04T06:54:37.927Z,101348.72
2023-04-04T06:57:04.692Z,101336.56
2023-04-04T06:59:31.057Z,101334.25
2023-04-04T07:01:57.923Z,101348.00
2023-04-04T07:04:24.498Z,101343.25
2023-04-04T07:06:50.848Z,101343.00
2023-04-04T07:09:28.006Z,101343.81
2023-04-04T07:11:55.372Z,101343.38
2023-04-04T07:14:25.160Z,101344.06
2023-04-04T07:16:52.366Z,101347.09
2023-04-04T07:19:18.882Z,101350.94
2023-04-04T07:21:45.239Z,101352.25
2023-04-04T07:24:11.680Z,101357.28
2023-04-04T07:26:38.070Z,101357.56
2023-04-04T07:29:04.458Z,101342.63
2023-04-04T07:31:30.901Z,101361.84
2023-04-04T07:33:57.400Z,101353.44
2023-04-04T07:36:23.754Z,101356.09
2023-04-04T07:38:50.154Z,101356.97
2023-04-04T07:41:16.771Z,101359.19
2023-04-04T07:43:43.302Z,101359.25
2023-04-04T07:46:09.772Z,101354.06
2023-04-04T07:48:36.449Z,101359.13
2023-04-04T07:51:04.486Z,101353.28
2023-04-04T07:53:31.039Z,101355.63
2023-04-04T07:55:57.413Z,101343.75
2023-04-04T07:58:23.938Z,101353.69
2023-04-04T08:00:50.280Z,101352.91
2023-04-04T08:03:17.791Z,101349.34
2023-04-04T08:05:44.312Z,101352.25
2023-04-04T08:08:10.827Z,101346.78
2023-04-04T08:10:37.261Z,101335.88
2023-04-04T08:13:05.755Z,101347.19
2023-04-04T08:15:32.095Z,101351.13
2023-04-04T08:17:58.447Z,101341.78
2023-04-04T08:20:24.841Z,101352.34
2023-04-04T08:22:51.225Z,101342.59
2023-04-04T08:25:18.526Z,101337.78
2023-04-04T08:27:45.518Z,101333.34
2023-04-04T08:30:15.521Z,101333.88
2023-04-04T08:32:44.195Z,101329.72
2023-04-04T08:35:11.098Z,101341.16
2023-04-04T08:37:38.358Z,101338.78
2023-04-04T08:40:06.651Z,101341.56
2023-04-04T08:42:36.180Z,101338.00
2023-04-04T08:45:04.800Z,101343.53
2023-04-04T08:47:36.242Z,101337.56
2023-04-04T08:50:06.824Z,101341.72
2023-04-04T08:52:35.125Z,101342.59
2023-04-04T08:55:06.790Z,101347.84
2023-04-04T08:57:33.461Z,101341.38
2023-04-04T09:00:00.457Z,101342.78
2023-04-04T09:02:34.043Z,101337.44
2023-04-04T09:05:06.730Z,101337.66
2023-04-04T09:07:38.606Z,101339.16
2023-04-04T09:10:08.673Z,101335.78
2023-04-04T09:12:37.391Z,101332.56
2023-04-04T09:15:04.214Z,101329.16
2023-04-04T09:17:30.598Z,101340.28
2023-04-04T09:20:03.077Z,101335.25
2023-04-04T09:22:29.456Z,101332.22
2023-04-04T09:24:56.597Z,101336.03
2023-04-04T09:27:22.962Z,101328.28
2023-04-04T09:29:49.843Z,101332.59
2023-04-04T09:32:17.279Z,101330.81
2023-04-04T09:34:45.171Z,101325.56
2023-04-04T09:37:14.282Z,101333.63
2023-04-04T09:39:41.921Z,101327.38
2023-04-04T09:42:08.821Z,101321.94
2023-04-04T09:44:36.906Z,101327.13
2023-04-04T09:50:01.811Z,101331.72
2023-04-04T09:52:33.027Z,101325.63
2023-04-04T09:55:00.868Z,101326.59
2023-04-04T09:57:31.835Z,101322.28
2023-04-04T10:00:00.738Z,101323.91
2023-04-04T10:02:31.001Z,101321.44
2023-04-04T10:05:06.005Z,101335.59
2023-04-04T10:07:33.795Z,101318.84
2023-04-04T10:10:08.000Z,101329.22
2023-04-04T10:12:34.970Z,101324.91
2023-04-04T10:15:02.246Z,101330.25
2023-04-04T10:17:37.295Z,101322.44
2023-04-04T10:20:06.316Z,101326.84
2023-04-04T10:22:33.927Z,101323.38
2023-04-04T10:25:00.588Z,101314.41
2023-04-04T10:27:27.910Z,101324.25
2023-04-04T10:29:54.728Z,101316.28
2023-04-04T10:32:32.895Z,101317.97
2023-04-04T10:35:10.891Z,101316.25
2023-04-04T10:37:43.088Z,101305.72
2023-04-04T10:40:15.272Z,101302.22
2023-04-04T10:42:47.470Z,101310.19
2023-04-04T10:45:21.161Z,101309.19
2023-04-04T10:47:49.024Z,101311.88
2023-04-04T10:50:15.596Z,101307.50
2023-04-04T10:52:46.116Z,101296.06
2023-04-04T10:55:14.937Z,101295.19
2023-04-04T10:57:47.705Z,101300.44
2023-04-04T11:00:17.689Z,101297.75
2023-04-04T11:02:48.634Z,101296.91
2023-04-04T11:06:02.596Z,101290.78
2023-04-04T11:08:29.150Z,101304.88
2023-04-04T11:10:57.796Z,101282.78
2023-04-04T11:13:32.484Z,101276.66
2023-04-04T11:16:08.026Z,101282.81
2023-04-04T11:18:40.346Z,101278.41
2023-04-04T11:21:08.759Z,101270.44
2023-04-04T11:23:47.511Z,101278.31
2023-04-04T11:26:17.634Z,101260.78
2023-04-04T11:28:45.940Z,101270.47
2023-04-04T11:31:24.102Z,101274.00
2023-04-04T11:34:14.175Z,101267.81
2023-04-04T11:36:41.458Z,101265.19
2023-04-04T11:39:12.446Z,101258.09
2023-04-04T11:42:03.862Z,101254.63
2023-04-04T11:44:31.853Z,101246.69
2023-04-04T11:47:11.853Z,101251.94
2023-04-04T11:49:40.913Z,101250.22
2023-04-04T11:52:09.970Z,101245.81
2023-04-04T11:54:38.441Z,101242.25
2023-04-04T11:57:15.296Z,101239.66
2023-04-04T11:59:52.178Z,101236.03
2023-04-04T12:02:27.404Z,101231.50
2023-04-04T12:04:54.370Z,101240.44
2023-04-04T12:07:20.896Z,101236.84
2023-04-04T12:09:48.012Z,101228.00
2023-04-04T12:12:18.599Z,101230.56
2023-04-04T12:14:45.198Z,101220.06
2023-04-04T12:17:11.629Z,101232.41
2023-04-04T12:19:39.939Z,101225.34
2023-04-04T12:22:08.226Z,101222.66
2023-04-04T12:24:35.977Z,101213.81
2023-04-04T12:27:03.412Z,101229.69
2023-04-04T12:29:36.357Z,101219.00
2023-04-04T12:32:04.034Z,101215.47
2023-04-04T12:34:33.109Z,101207.59
2023-04-04T12:37:01.785Z,101214.53
2023-04-04T12:39:29.110Z,101207.66
2023-04-04T12:41:59.583Z,101198.69
2023-04-04T12:44:35.989Z,101204.84
2023-04-04T12:47:05.208Z,101203.16
2023-04-04T12:49:40.228Z,101204.06
2023-04-04T12:52:08.946Z,101190.75
2023-04-04T12:54:39.216Z,101180.13
2023-04-04T12:57:07.966Z,101182.06
2023-04-04T12:59:36.206Z,101194.38
2023-04-04T13:02:12.435Z,101178.56
2023-04-04T13:04:40.473Z,101166.16
2023-04-04T13:07:27.540Z,101156.97
2023-04-04T13:09:56.520Z,101162.22
2023-04-04T13:12:23.705Z,101168.50
2023-04-04T13:15:00.800Z,101165.13
2023-04-04T13:17:41.725Z,101153.50
2023-04-04T13:20:09.047Z,101152.41
2023-04-04T13:22:36.782Z,101152.75
2023-04-04T13:25:08.073Z,101145.47
2023-04-04T13:27:35.362Z,101151.94
2023-04-04T13:30:02.255Z,101139.22
2023-04-04T13:32:29.889Z,101136.69
2023-04-04T13:34:56.406Z,101140.97
2023-04-04T13:37:22.896Z,101136.88
2023-04-04T13:39:49.275Z,101128.66
2023-04-04T13:42:15.855Z,101128.75
2023-04-04T13:44:42.196Z,101137.47
2023-04-04T13:47:08.575Z,101124.91
2023-04-04T13:49:34.979Z,101124.84
2023-04-04T13:52:01.397Z,101125.81
2023-04-04T13:54:27.738Z,101122.50
2023-04-04T13:56:55.422Z,101126.09
2023-04-04T13:59:22.281Z,101123.28
2023-04-04T14:01:48.867Z,101116.44
2023-04-04T14:04:23.214Z,101114.72
2023-04-04T14:06:50.387Z,101116.22
2023-04-04T14:09:16.856Z,101105.34
2023-04-04T14:11:43.614Z,101110.63
2023-04-04T14:14:10.062Z,101102.19
2023-04-04T14:16:36.597Z,101089.56
2023-04-04T14:19:03.183Z,101094.16
2023-04-04T14:21:29.567Z,101087.41
2023-04-04T14:23:55.961Z,101067.66
2023-04-04T14:26:22.291Z,101076.28
2023-04-04T14:28:48.760Z,101078.91
2023-04-04T14:31:15.482Z,101076.91
2023-04-04T14:33:42.004Z,101067.84
2023-04-04T14:36:08.387Z,101067.81
2023-04-04T14:38:34.772Z,101069.63
2023-04-04T14:41:02.019Z,101073.53
2023-04-04T14:43:28.523Z,101064.63
2023-04-04T14:45:55.032Z,101055.31
2023-04-04T14:48:21.459Z,101066.13
2023-04-04T14:50:47.882Z,101053.22
2023-04-04T14:53:14.292Z,101061.22
2023-04-04T14:55:40.938Z,101063.03
2023-04-04T14:58:08.148Z,101061.25
2023-04-04T15:00:34.650Z,101054.25
2023-04-04T15:03:01.543Z,101050.41
2023-04-04T15:05:28.210Z,101056.38
2023-04-04T15:07:55.705Z,101052.66
2023-04-04T15:10:22.820Z,101048.41
2023-04-04T15:12:49.211Z,101045.09
2023-04-04T15:15:15.689Z,101040.38
2023-04-04T15:17:42.267Z,101033.34
2023-04-04T15:20:09.434Z,101036.81
2023-04-04T15:22:36.326Z,101035.13
2023-04-04T15:25:02.761Z,101043.19
2023-04-04T15:27:29.144Z,101041.38
2023-04-04T15:29:55.501Z,101037.09
2023-04-04T15:32:21.977Z,101039.53
2023-04-04T15:34:48.323Z,101045.03
2023-04-04T15:37:15.472Z,101039.59
2023-04-04T15:39:51.835Z,101036.88
2023-04-04T15:42:19.904Z,101029.22
2023-04-04T15:44:46.532Z,101031.03
2023-04-04T15:47:13.185Z,101027.66
2023-04-04T15:49:39.751Z,101024.84
2023-04-04T15:52:06.368Z,101026.66
2023-04-04T15:54:32.791Z,101016.94
2023-04-04T15:56:59.225Z,101016.16
2023-04-04T15:59:26.305Z,101016.69
2023-04-04T16:01:52.823Z,101017.91
2023-04-04T16:04:19.306Z,101019.50
2023-04-04T16:06:45.746Z,101019.16
2023-04-04T16:09:12.131Z,101015.00
2023-04-04T16:11:38.855Z,101011.72
2023-04-04T16:14:05.975Z,101016.03
2023-04-04T16:16:32.441Z,101012.47
2023-04-04T16:18:58.885Z,101009.44
2023-04-04T16:21:26.422Z,101011.06
2023-04-04T16:23:54.749Z,101002.09
2023-04-04T16:26:22.018Z,100998.97
2023-04-04T16:28:48.383Z,100999.72
2023-04-04T16:31:15.712Z,100991.22
2023-04-04T16:33:42.130Z,100990.19
2023-04-04T16:36:08.705Z,100983.34
2023-04-04T16:38:35.071Z,100988.59
2023-04-04T16:41:01.980Z,100982.41
2023-04-04T16:43:28.346Z,100982.59
2023-04-04T16:45:54.682Z,100980.91
2023-04-04T16:48:21.140Z,100973.72
2023-04-04T16:50:47.603Z,100981.88
2023-04-04T16:53:14.166Z,100982.59
2023-04-04T16:55:40.644Z,100981.84
2023-04-04T16:58:07.032Z,100980.09
2023-04-04T17:00:33.552Z,100980.09
2023-04-04T17:03:00.012Z,100981.19
2023-04-04T17:05:27.225Z,100975.88
2023-04-04T17:07:53.686Z,100980.25
2023-04-04T17:10:20.417Z,100985.66
2023-04-04T17:12:47.120Z,100983.91
2023-04-04T17:15:15.577Z,100983.13
2023-04-04T17:17:42.995Z,100982.19
2023-04-04T17:20:09.927Z,100974.38
2023-04-04T17:22:36.350Z,100978.75
2023-04-04T17:25:03.515Z,100979.63
2023-04-04T17:27:30.566Z,100987.41
2023-04-04T17:29:57.145Z,100976.09
2023-04-04T17:32:23.566Z,100977.91
2023-04-04T17:34:49.902Z,100988.38
2023-04-04T17:37:16.238Z,100983.28
2023-04-04T17:39:45.226Z,100979.56
2023-04-04T17:42:12.234Z,100979.47
2023-04-04T17:44:38.661Z,100983.13
2023-04-04T17:47:05.228Z,100986.00
2023-04-04T17:49:31.654Z,100978.28
2023-04-04T17:51:58.238Z,100979.09
2023-04-04T17:54:26.743Z,100984.53
2023-04-04T17:56:53.231Z,100978.50
2023-04-04T17:59:19.758Z,100982.28
2023-04-04T18:01:46.632Z,100983.22
2023-04-04T18:04:13.137Z,100985.84
2023-04-04T18:06:41.522Z,100983.22
2023-04-04T18:09:09.987Z,100977.09
2023-04-04T18:11:37.068Z,100978.84
2023-04-04T18:14:04.137Z,100974.47
2023-04-04T18:16:38.322Z,100978.00
2023-04-04T18:19:06.453Z,100982.44
2023-04-04T18:21:32.941Z,100991.22
2023-04-04T18:23:59.364Z,100992.09
2023-04-04T18:26:25.703Z,100991.16
2023-04-04T18:28:52.080Z,100989.34
2023-04-04T18:31:18.612Z,100990.19
2023-04-04T18:33:45.316Z,100993.69
2023-04-04T18:36:11.909Z,100994.56
2023-04-04T18:38:38.360Z,100999.84
2023-04-04T18:41:05.723Z,101004.19
2023-04-04T18:43:32.295Z,101003.34
2023-04-04T18:45:59.526Z,101007.63
2023-04-04T18:48:27.113Z,101004.03
2023-04-04T18:50:53.539Z,101004.03
2023-04-04T18:53:19.889Z,101009.22
2023-04-04T18:55:48.939Z,101011.69
2023-04-04T18:58:15.712Z,101009.88
2023-04-04T19:00:42.382Z,101006.34
2023-04-04T19:03:10.478Z,101015.94
2023-04-04T19:05:38.581Z,101008.84
2023-04-04T19:08:08.739Z,101009.84
2023-04-04T19:10:36.083Z,101013.09
2023-04-04T19:13:02.713Z,101010.97
2023-04-04T19:15:29.093Z,101010.22
2023-04-04T19:17:55.580Z,101012.78
2023-04-04T19:20:22.579Z,101018.22
2023-04-04T19:22:49.599Z,101014.94
2023-04-04T19:25:16.918Z,101013.31
2023-04-04T19:27:43.350Z,101010.69
2023-04-04T19:30:35.593Z,101011.66
2023-04-04T19:33:03.195Z,101008.16
2023-04-04T19:35:54.752Z,101011.31
2023-04-04T19:38:23.792Z,101011.16
2023-04-04T19:41:03.276Z,101007.66
2023-04-04T19:43:30.529Z,101005.09
2023-04-04T19:45:58.853Z,101013.94
2023-04-04T19:48:44.161Z,101006.06
2023-04-04T19:51:32.177Z,101002.50
2023-04-04T19:53:59.882Z,101004.22
2023-04-04T19:56:27.834Z,100999.81
2023-04-04T19:58:56.919Z,101006.09
2023-04-04T20:01:28.065Z,101000.84
2023-04-04T20:03:55.802Z,101000.13
2023-04-04T20:06:27.848Z,101001.03
2023-04-04T20:09:32.418Z,101011.56
2023-04-04T20:11:58.766Z,101009.91
2023-04-04T20:14:25.418Z,101003.94
2023-04-04T20:16:52.368Z,101003.66
2023-04-04T20:19:20.042Z,101010.78
2023-04-04T20:21:48.633Z,101009.00
2023-04-04T20:24:17.656Z,101008.97
2023-04-04T20:26:55.171Z,101008.06
2023-04-04T20:29:25.494Z,101007.09
2023-04-04T20:32:02.495Z,101008.03
2023-04-04T20:34:39.012Z,101012.47
2023-04-04T20:37:08.901Z,101015.84
2023-04-04T20:39:45.989Z,101010.66
2023-04-04T20:42:19.691Z,101010.50
2023-04-04T20:44:46.593Z,101010.59
2023-04-04T20:47:40.796Z,101010.44
2023-04-04T20:50:16.181Z,101006.97
2023-04-04T20:53:01.738Z,101007.88
2023-04-04T20:55:30.303Z,101007.97
2023-04-04T20:58:19.733Z,101011.44
2023-04-04T21:00:46.182Z,101016.81
2023-04-04T21:03:26.613Z,101020.22
2023-04-04T21:05:56.742Z,101020.97
2023-04-04T21:08:24.032Z,101023.47
2023-04-04T21:10:54.974Z,101022.44
2023-04-04T21:13:27.298Z,101021.72
2023-04-04T21:16:01.966Z,101026.88
2023-04-04T21:18:31.686Z,101033.97
2023-04-04T21:21:18.918Z,101029.50
2023-04-04T21:23:48.480Z,101030.09
2023-04-04T21:26:53.712Z,101030.47
2023-04-04T21:29:24.997Z,101031.16
2023-04-04T21:31:53.567Z,101019.78
2023-04-04T21:34:21.910Z,101026.84
2023-04-04T21:36:50.308Z,101028.34
2023-04-04T21:39:24.796Z,101027.28
2023-04-04T21:41:53.733Z,101025.69
2023-04-04T21:44:20.164Z,101034.59
2023-04-04T21:46:46.703Z,101037.38
2023-04-04T21:49:13.164Z,101044.38
2023-04-04T21:51:39.641Z,101033.09
2023-04-04T21:54:06.306Z,101040.84
2023-04-04T21:56:32.898Z,101036.03
2023-04-04T21:59:01.155Z,101034.72
2023-04-04T22:01:28.063Z,101029.28
2023-04-04T22:03:54.496Z,101024.78
2023-04-04T22:06:26.104Z,101033.28
2023-04-04T22:08:54.095Z,101035.03
2023-04-04T22:11:20.543Z,101033.28
2023-04-04T22:13:48.318Z,101037.53
2023-04-04T22:16:16.863Z,101037.41
2023-04-04T22:18:51.888Z,101039.03
2023-04-04T22:21:25.726Z,101041.63
2023-04-04T22:23:53.937Z,101035.63
2023-04-04T22:26:28.943Z,101033.84
2023-04-04T22:28:56.790Z,101034.56
2023-04-04T22:31:23.624Z,101034.50
2023-04-04T22:33:51.209Z,101043.09
2023-04-04T22:36:18.584Z,101035.09
2023-04-04T22:38:45.039Z,101031.75
2023-04-04T22:41:11.814Z,101032.56
2023-04-04T22:43:38.235Z,101028.03
2023-04-04T22:46:04.695Z,101029.91
2023-04-04T22:48:31.103Z,101034.97
2023-04-04T22:50:58.753Z,101035.84
2023-04-04T22:53:25.834Z,101036.63
2023-04-04T22:55:53.810Z,101035.69
2023-04-04T22:58:21.563Z,101032.97
2023-04-04T23:00:48.693Z,101032.03
2023-04-04T23:03:15.904Z,101027.66
2023-04-04T23:05:42.410Z,101024.34
2023-04-04T23:08:08.818Z,101024.59
2023-04-04T23:10:35.568Z,101021.53
2023-04-04T23:13:01.927Z,101018.69
2023-04-04T23:15:28.777Z,101019.34
2023-04-04T23:17:55.600Z,101016.03
2023-04-04T23:20:22.238Z,101016.16
2023-04-04T23:22:48.829Z,101013.44
2023-04-04T23:25:15.309Z,101012.34
2023-04-04T23:27:41.728Z,101013.09
2023-04-04T23:30:09.711Z,101011.28
2023-04-04T23:32:36.468Z,101013.00
2023-04-04T23:35:02.958Z,101009.31
2023-04-04T23:37:29.328Z,101002.28
2023-04-04T23:39:55.758Z,101005.47
2023-04-04T23:42:22.789Z,101000.94
2023-04-04T23:44:49.223Z,100999.06
2023-04-04T23:47:16.096Z,100993.00
2023-04-04T23:49:42.685Z,101001.63
2023-04-04T23:52:09.134Z,100999.72
2023-04-04T23:54:35.747Z,100988.25
2023-04-04T23:57:02.479Z,100993.22
2023-04-04T23:59:28.987Z,100990.63
